KCOU

Columbia Regional Airport

Columbia, Missouri, USA
METAR KCOU 280054Z 23003KT 10SM FEW060 30/21 A2986 RMK AO2 LTG DSNT SE SLP102 T03000206 $
Observed Flight Rules
May-28 @ 00:54 UTC (22 minutes ago) Visual Flight Rules
Wind Visibility Clouds
230° at 3 knots 10 miles
  • Few at 6,000' AGL
Temperatures Readings
Current 30°C / 86°F
Dewpoint 21°C / 70°F
Humidity 59%
Altimeter 29.86" Hg
Pressure 1010.2 hPa
Elevation 271
METAR KCOU 280054Z 23003KT 10SM FEW060 30/21 A2986 RMK AO2 LTG DSNT SE SLP102 T03000206 $
Observed Flight Rules
May-28 @ 00:54 UTC
(22 minutes ago)
VFR
Wind Visibility
230° at 3 knots 10 miles
Clouds
  • Few at 6,000' AGL
Temperature Dewpoint
30°C / 86°F 21°C / 70°F
Humidity Altimeter Pressure
59% 29.86" Hg 1010.2 hPa